Strona główna
METAR-TAF:

METAR-TAF

Lotnisko :

Platforma wiertnicza

Goeree Le, Holandia

Szerokość geograficzna: 51-55-33N, Długość geograficzna: 3-40-12E, wysokość: 19 m

Aktualna obserwacja pogody

Raport powstał 12 minut temu, godzina 11:55 UTC
Wiatr 11 kt od południowo-południowy zachód
Temperatura 8°C
Wilgotność 93%
Ciśnienie 1003 hPa
Widzialność 10 km lub więcej

METAR: EHSC 161155Z AUTO 21011KT 9999 ///////// 08/07 Q1003 W08/H10

czas: 13:07 (12:07 UTC)


TAF: brakujący

Obserwacja i prognoza pogody dla ponad 4000 lotnisk (raport METAR i TAF).

Dostępne stacje oznaczono żółtymi i czerwonymi punktami na mapie.

Najedź kursorem aby zobaczyć nazwę stacji.

Kliknij aby zobaczyć obserwacje i prognozy pogody.

Aby zmienić mapę: kliknij na zielony przycisk z czarnym krzyżykiem, aby powiększyć; na zielony przycisk z myślnikiem, aby pomniejszyć; na zielone strzałki, aby przejść do map sąsiednich.


METAR-TAF: